createdAt,value
2019-02-08T00:02:19.581Z,2.80
2019-02-08T00:04:50.302Z,2.73
2019-02-08T00:07:21.115Z,2.70
2019-02-08T00:09:52.081Z,2.62
2019-02-08T00:12:25.979Z,2.57
2019-02-08T00:14:56.902Z,2.56
2019-02-08T00:17:29.003Z,2.59
2019-02-08T00:20:00.130Z,2.67
2019-02-08T00:22:32.112Z,2.72
2019-02-08T00:25:02.550Z,2.74
2019-02-08T00:27:32.873Z,2.75
2019-02-08T00:30:03.407Z,2.76
2019-02-08T00:32:34.080Z,2.78
2019-02-08T00:35:04.882Z,2.73
2019-02-08T00:37:35.765Z,2.74
2019-02-08T00:40:08.279Z,2.76
2019-02-08T00:42:38.686Z,2.79
2019-02-08T00:45:09.362Z,2.80
2019-02-08T00:47:40.271Z,2.82
2019-02-08T00:50:14.286Z,2.92
2019-02-08T00:52:44.756Z,2.90
2019-02-08T00:55:15.193Z,2.98
2019-02-08T00:57:45.591Z,2.97
2019-02-08T01:00:17.155Z,2.97
2019-02-08T01:02:48.412Z,3.01
2019-02-08T01:05:19.358Z,3.09
2019-02-08T01:07:49.683Z,2.92
2019-02-08T01:10:28.688Z,2.95
2019-02-08T01:12:59.598Z,2.86
2019-02-08T01:15:30.902Z,2.81
2019-02-08T01:18:01.785Z,2.77
2019-02-08T01:20:32.274Z,2.75
2019-02-08T01:23:02.703Z,2.63
2019-02-08T01:25:33.589Z,2.58
2019-02-08T01:28:04.135Z,2.53
2019-02-08T01:30:35.294Z,2.59
2019-02-08T01:33:06.389Z,2.49
2019-02-08T01:35:36.873Z,2.53
2019-02-08T01:38:07.416Z,2.48
2019-02-08T01:40:38.946Z,2.44
2019-02-08T01:43:10.724Z,2.49
2019-02-08T01:45:41.117Z,2.43
2019-02-08T01:48:12.035Z,2.41
2019-02-08T01:50:42.408Z,2.33
2019-02-08T01:53:12.820Z,2.38
2019-02-08T01:55:43.212Z,2.40
2019-02-08T01:58:13.561Z,2.32
2019-02-08T02:00:45.421Z,2.33
2019-02-08T02:03:16.543Z,2.29
2019-02-08T02:05:46.946Z,2.19
2019-02-08T02:08:17.255Z,2.09
2019-02-08T02:10:48.365Z,1.99
2019-02-08T02:13:18.769Z,1.98
2019-02-08T02:15:49.095Z,1.96
2019-02-08T02:18:19.517Z,2.07
2019-02-08T02:20:49.845Z,2.13
2019-02-08T02:23:21.902Z,2.19
2019-02-08T02:25:52.902Z,2.28
2019-02-08T02:28:23.266Z,2.49
2019-02-08T02:30:54.221Z,2.52
2019-02-08T02:33:24.813Z,2.53
2019-02-08T02:35:55.267Z,2.49
2019-02-08T02:38:25.694Z,2.45
2019-02-08T02:40:55.974Z,2.51
2019-02-08T02:43:26.880Z,2.42
2019-02-08T02:45:57.648Z,2.38
2019-02-08T02:48:28.086Z,2.45
2019-02-08T02:50:58.866Z,2.55
2019-02-08T02:53:29.346Z,2.58
2019-02-08T02:55:59.673Z,2.64
2019-02-08T02:58:31.670Z,2.71
2019-02-08T03:01:01.999Z,2.67
2019-02-08T03:03:32.412Z,2.74
2019-02-08T03:06:03.166Z,2.85
2019-02-08T03:08:33.565Z,2.93
2019-02-08T03:11:03.907Z,2.98
2019-02-08T03:13:34.303Z,2.99
2019-02-08T03:16:05.194Z,3.01
2019-02-08T03:18:35.515Z,3.01
2019-02-08T03:21:08.216Z,3.17
2019-02-08T03:23:38.582Z,3.08
2019-02-08T03:26:09.003Z,2.94
2019-02-08T03:28:39.610Z,3.03
2019-02-08T03:31:10.015Z,3.00
2019-02-08T03:33:40.530Z,3.02
2019-02-08T03:36:10.873Z,3.02
2019-02-08T03:38:41.314Z,2.86
2019-02-08T03:41:11.669Z,2.87
2019-02-08T03:43:42.103Z,2.90
2019-02-08T03:46:13.749Z,2.80
2019-02-08T03:48:44.140Z,2.75
2019-02-08T03:51:14.528Z,2.84
2019-02-08T03:53:45.507Z,2.85
2019-02-08T03:56:15.904Z,2.89
2019-02-08T03:58:46.256Z,2.98
2019-02-08T04:01:17.344Z,2.91
2019-02-08T04:03:47.860Z,2.86
2019-02-08T04:06:19.207Z,2.88
2019-02-08T04:08:50.052Z,2.84
2019-02-08T04:11:20.491Z,2.74
2019-02-08T04:13:50.856Z,2.81
2019-02-08T04:16:21.300Z,2.66
2019-02-08T04:18:51.737Z,2.63
2019-02-08T04:21:22.174Z,2.56
2019-02-08T04:23:52.627Z,2.53
2019-02-08T04:26:23.076Z,2.46
2019-02-08T04:28:53.840Z,2.41
2019-02-08T04:31:24.219Z,2.57
2019-02-08T04:33:54.936Z,2.54
2019-02-08T04:36:25.344Z,2.65
2019-02-08T04:38:56.231Z,2.64
2019-02-08T04:41:26.960Z,2.68
2019-02-08T04:43:57.372Z,2.64
2019-02-08T04:46:27.784Z,2.66
2019-02-08T04:48:58.244Z,2.56
2019-02-08T04:51:29.115Z,2.43
2019-02-08T04:53:59.682Z,2.46
2019-02-08T04:56:30.118Z,2.47
2019-02-08T04:59:00.599Z,2.54
2019-02-08T05:01:30.951Z,2.58
2019-02-08T05:04:01.318Z,2.51
2019-02-08T05:06:32.316Z,2.52
2019-02-08T05:09:02.752Z,2.53
2019-02-08T05:11:33.248Z,2.57
2019-02-08T05:14:04.078Z,2.57
2019-02-08T05:16:34.418Z,2.48
2019-02-08T05:19:05.388Z,2.42
2019-02-08T05:21:36.541Z,2.40
2019-02-08T05:24:07.123Z,2.32
2019-02-08T05:26:37.801Z,2.18
2019-02-08T05:29:08.199Z,2.11
2019-02-08T05:31:40.249Z,1.99
2019-02-08T05:34:10.684Z,2.00
2019-02-08T05:36:41.057Z,2.00
2019-02-08T05:39:12.730Z,2.09
2019-02-08T05:41:43.238Z,2.13
2019-02-08T05:44:15.590Z,2.15
2019-02-08T05:46:46.034Z,2.17
2019-02-08T05:49:22.329Z,2.06
2019-02-08T05:51:52.956Z,2.01
2019-02-08T05:54:24.215Z,2.04
2019-02-08T05:56:54.655Z,2.02
2019-02-08T05:59:25.708Z,2.08
2019-02-08T06:01:58.743Z,2.18
2019-02-08T06:04:29.965Z,2.25
2019-02-08T06:07:00.893Z,2.33
2019-02-08T06:09:31.862Z,2.51
2019-02-08T06:12:02.228Z,2.53
2019-02-08T06:14:32.924Z,2.57
2019-02-08T06:17:03.668Z,2.51
2019-02-08T06:19:34.094Z,2.52
2019-02-08T06:22:05.272Z,2.57
2019-02-08T06:24:35.770Z,2.51
2019-02-08T06:27:06.917Z,2.49
2019-02-08T06:29:39.574Z,2.46
2019-02-08T06:32:10.260Z,2.42
2019-02-08T06:34:41.422Z,2.32
2019-02-08T06:37:11.881Z,2.46
2019-02-08T06:39:44.200Z,2.41
2019-02-08T06:42:14.646Z,2.50
2019-02-08T06:44:44.945Z,2.56
2019-02-08T06:47:15.421Z,2.60
2019-02-08T06:49:45.873Z,2.63
2019-02-08T06:52:16.372Z,2.71
2019-02-08T06:54:46.933Z,2.71
2019-02-08T06:57:44.186Z,2.90
2019-02-08T07:00:34.156Z,3.36
2019-02-08T07:03:21.883Z,3.65
2019-02-08T07:06:09.898Z,4.08
2019-02-08T07:08:59.057Z,4.31
2019-02-08T07:11:45.416Z,4.85
2019-02-08T07:14:50.609Z,4.75
2019-02-08T07:17:33.045Z,4.79
2019-02-08T07:20:37.797Z,5.52
2019-02-08T07:23:36.534Z,5.83
2019-02-08T07:26:38.342Z,6.36
2019-02-08T07:29:24.188Z,6.11
2019-02-08T07:32:25.509Z,7.21
2019-02-08T07:35:55.340Z,7.19
2019-02-08T07:38:54.137Z,7.57
2019-02-08T07:41:38.629Z,7.00
2019-02-08T07:44:27.964Z,7.17
2019-02-08T07:47:21.712Z,7.06
2019-02-08T07:50:05.767Z,7.36
2019-02-08T07:53:04.343Z,7.67
2019-02-08T07:55:41.747Z,7.88
2019-02-08T07:58:24.695Z,8.14
2019-02-08T08:01:06.185Z,8.80
2019-02-08T08:04:04.727Z,9.39
2019-02-08T08:06:53.947Z,9.64
2019-02-08T08:09:40.267Z,9.68
2019-02-08T08:12:17.325Z,9.92
2019-02-08T08:15:13.239Z,9.68
2019-02-08T08:18:02.279Z,9.85
2019-02-08T08:20:45.346Z,10.23
2019-02-08T08:23:27.478Z,10.67
2019-02-08T08:26:34.069Z,11.04
2019-02-08T08:29:24.842Z,11.20
2019-02-08T08:32:25.729Z,11.80
2019-02-08T08:35:28.821Z,11.96
2019-02-08T08:38:32.622Z,11.86
2019-02-08T08:41:36.672Z,12.28
2019-02-08T08:44:49.403Z,11.85
2019-02-08T08:48:04.651Z,11.95
2019-02-08T08:51:29.558Z,12.06
2019-02-08T08:54:34.690Z,12.53
2019-02-08T08:57:49.499Z,13.59
2019-02-08T09:00:54.299Z,13.45
2019-02-08T09:04:03.240Z,12.64
2019-02-08T09:07:00.336Z,12.41
2019-02-08T09:10:26.454Z,12.90
2019-02-08T09:13:35.577Z,12.48
2019-02-08T09:16:33.348Z,13.09
2019-02-08T09:19:44.643Z,13.87
2019-02-08T09:23:25.427Z,13.14
2019-02-08T09:26:36.010Z,13.24
2019-02-08T09:29:31.055Z,13.13
2019-02-08T09:32:47.711Z,13.24
2019-02-08T09:36:13.848Z,12.43
2019-02-08T09:39:33.159Z,12.69
2019-02-08T09:42:40.207Z,12.13
2019-02-08T09:45:51.916Z,12.25
2019-02-08T09:48:52.508Z,11.88
2019-02-08T09:52:00.372Z,11.22
2019-02-08T09:55:24.077Z,10.88
2019-02-08T09:58:44.643Z,10.45
2019-02-08T10:01:47.878Z,10.78
2019-02-08T10:05:13.507Z,10.34
2019-02-08T10:08:37.658Z,10.96
2019-02-08T10:11:54.557Z,10.82
2019-02-08T10:15:02.286Z,10.57
2019-02-08T10:18:01.727Z,10.11
2019-02-08T10:21:14.160Z,10.05
2019-02-08T10:24:37.482Z,10.38
2019-02-08T10:27:50.764Z,10.39
2019-02-08T10:31:16.978Z,10.04
2019-02-08T10:34:17.681Z,10.17
2019-02-08T10:37:32.700Z,10.20
2019-02-08T10:40:37.737Z,10.62
2019-02-08T10:43:56.514Z,10.36
2019-02-08T10:47:01.621Z,9.78
2019-02-08T10:50:16.366Z,9.80
2019-02-08T10:53:29.035Z,10.21
2019-02-08T10:56:38.899Z,10.31
2019-02-08T10:59:43.992Z,10.68
2019-02-08T11:03:08.962Z,11.34
2019-02-08T11:06:32.228Z,11.25
2019-02-08T11:09:38.257Z,10.99
2019-02-08T11:12:43.333Z,10.96
2019-02-08T11:15:45.566Z,11.13
2019-02-08T11:18:57.995Z,11.39
2019-02-08T11:21:28.772Z,11.32
2019-02-08T11:23:59.634Z,11.44
2019-02-08T11:26:29.961Z,11.72
2019-02-08T11:29:00.420Z,11.98
2019-02-08T11:31:30.726Z,11.69
2019-02-08T11:34:01.551Z,11.57
2019-02-08T11:36:32.046Z,11.38
2019-02-08T11:39:03.333Z,11.32
2019-02-08T11:41:33.741Z,10.95
2019-02-08T11:44:04.216Z,10.43
2019-02-08T11:46:35.579Z,10.55
2019-02-08T11:49:06.717Z,10.51
2019-02-08T11:51:37.030Z,10.63
2019-02-08T11:54:08.841Z,10.48
2019-02-08T12:03:34.836Z,11.63
2019-02-08T12:06:07.381Z,11.50
2019-02-08T12:08:37.794Z,11.70
2019-02-08T12:11:08.191Z,11.87
2019-02-08T12:13:39.075Z,11.89
2019-02-08T12:16:10.073Z,11.18
2019-02-08T12:18:40.629Z,10.79
2019-02-08T12:21:15.270Z,11.56
2019-02-08T12:23:45.667Z,11.03
2019-02-08T12:26:16.135Z,11.23
2019-02-08T12:28:46.638Z,10.33
2019-02-08T12:31:17.502Z,10.54
2019-02-08T12:33:47.887Z,10.29
2019-02-08T12:36:18.333Z,10.38
2019-02-08T12:38:48.748Z,10.34
2019-02-08T12:41:19.243Z,9.79
2019-02-08T12:43:50.145Z,9.93
2019-02-08T12:46:21.071Z,9.87
2019-02-08T12:48:51.942Z,9.72
2019-02-08T12:51:22.347Z,9.83
2019-02-08T12:53:52.695Z,9.57
2019-02-08T12:56:24.024Z,9.38
2019-02-08T12:58:54.396Z,10.03
2019-02-08T13:01:24.831Z,9.96
2019-02-08T13:03:55.353Z,9.82
2019-02-08T13:06:26.115Z,10.25
2019-02-08T13:08:56.562Z,10.42
2019-02-08T13:11:27.059Z,10.41
2019-02-08T13:13:57.440Z,10.19
2019-02-08T13:16:27.855Z,10.37
2019-02-08T13:18:59.278Z,10.07
2019-02-08T13:21:29.863Z,10.12
2019-02-08T13:24:00.260Z,10.35
2019-02-08T13:26:30.706Z,10.12
2019-02-08T13:29:01.312Z,10.10
2019-02-08T13:31:31.715Z,10.46
2019-02-08T13:34:02.047Z,10.32
2019-02-08T13:36:32.463Z,10.33
2019-02-08T13:39:03.558Z,10.39
2019-02-08T13:41:33.920Z,10.58
2019-02-08T13:44:04.355Z,10.49
2019-02-08T13:46:34.662Z,10.47
2019-02-08T13:49:05.261Z,10.75
2019-02-08T13:51:35.685Z,10.68
2019-02-08T13:54:07.117Z,10.51
2019-02-08T13:56:37.449Z,10.60
2019-02-08T13:59:07.875Z,10.81
2019-02-08T14:01:38.663Z,10.58
2019-02-08T14:04:08.999Z,10.19
2019-02-08T14:06:39.408Z,9.86
2019-02-08T14:09:10.784Z,10.09
2019-02-08T14:11:41.703Z,10.23
2019-02-08T14:14:12.067Z,10.31
2019-02-08T14:16:42.523Z,10.49
2019-02-08T14:19:13.776Z,10.31
2019-02-08T14:21:44.184Z,10.39
2019-02-08T14:24:16.216Z,10.13
2019-02-08T14:26:47.111Z,10.27
2019-02-08T14:29:17.893Z,10.08
2019-02-08T14:31:48.277Z,10.17
2019-02-08T14:34:18.666Z,10.32
2019-02-08T14:36:49.081Z,10.12
2019-02-08T14:39:19.476Z,10.06
2019-02-08T14:41:49.989Z,9.82
2019-02-08T14:44:20.989Z,9.67
2019-02-08T14:46:51.412Z,9.68
2019-02-08T14:49:23.734Z,9.74
2019-02-08T14:51:54.217Z,9.69
2019-02-08T14:54:24.689Z,9.70
2019-02-08T14:56:55.051Z,9.70
2019-02-08T14:59:25.391Z,9.58
2019-02-08T15:01:55.796Z,9.58
2019-02-08T15:04:26.717Z,9.63
2019-02-08T15:06:57.164Z,9.51
2019-02-08T15:09:27.485Z,9.55
2019-02-08T15:11:57.830Z,9.45
2019-02-08T15:14:28.271Z,9.22
2019-02-08T15:16:58.739Z,9.16
2019-02-08T15:19:29.216Z,9.21
2019-02-08T15:21:59.632Z,9.09
2019-02-08T15:24:31.098Z,9.08
2019-02-08T15:27:01.391Z,8.88
2019-02-08T15:29:31.808Z,8.83
2019-02-08T15:32:02.517Z,8.81
2019-02-08T15:34:33.372Z,8.77
2019-02-08T15:37:03.783Z,8.60
2019-02-08T15:39:34.241Z,8.50
2019-02-08T15:42:07.217Z,8.37
2019-02-08T15:44:37.637Z,8.32
2019-02-08T15:47:08.645Z,8.22
2019-02-08T15:49:40.555Z,8.09
2019-02-08T15:52:10.964Z,8.01
2019-02-08T15:54:42.485Z,7.96
2019-02-08T15:57:13.304Z,8.03
2019-02-08T15:59:46.519Z,7.83
2019-02-08T16:02:21.561Z,7.84
2019-02-08T16:04:51.973Z,7.84
2019-02-08T16:07:22.655Z,7.75
2019-02-08T16:09:53.126Z,7.95
2019-02-08T16:12:23.561Z,7.98
2019-02-08T16:14:53.932Z,8.07
2019-02-08T16:17:24.468Z,8.13
2019-02-08T16:19:54.847Z,8.08
2019-02-08T16:22:25.726Z,8.03
2019-02-08T16:24:56.049Z,8.03
2019-02-08T16:27:26.434Z,7.98
2019-02-08T16:29:56.849Z,7.91
2019-02-08T16:32:27.392Z,7.79
2019-02-08T16:34:57.793Z,7.80
2019-02-08T16:37:31.009Z,7.72
2019-02-08T16:40:01.403Z,7.68
2019-02-08T16:42:31.791Z,7.61
2019-02-08T16:45:04.379Z,7.44
2019-02-08T16:47:34.703Z,7.30
2019-02-08T16:50:07.324Z,7.04
2019-02-08T16:52:38.866Z,6.96
2019-02-08T16:55:13.139Z,6.71
2019-02-08T16:57:48.092Z,6.51
2019-02-08T17:00:27.915Z,6.37
2019-02-08T17:02:59.115Z,6.30
2019-02-08T17:05:34.101Z,6.18
2019-02-08T17:08:04.950Z,6.19
2019-02-08T17:10:36.492Z,6.09
2019-02-08T17:13:07.173Z,6.02
2019-02-08T17:15:37.757Z,6.10
2019-02-08T17:18:08.593Z,6.02
2019-02-08T17:20:43.744Z,6.07
2019-02-08T17:23:14.224Z,6.04
2019-02-08T17:25:44.647Z,6.13
2019-02-08T17:28:15.039Z,6.21
2019-02-08T17:30:45.392Z,6.26
2019-02-08T17:33:18.250Z,6.24
2019-02-08T17:35:48.636Z,6.24
2019-02-08T17:38:18.958Z,6.39
2019-02-08T17:40:50.252Z,6.40
2019-02-08T17:43:21.199Z,6.41
2019-02-08T17:45:51.651Z,6.45
2019-02-08T17:48:22.231Z,6.48
2019-02-08T17:50:52.675Z,6.55
2019-02-08T17:53:23.028Z,6.50
2019-02-08T17:55:53.807Z,6.56
2019-02-08T17:58:24.190Z,6.51
2019-02-08T18:00:59.788Z,6.50
2019-02-08T18:03:30.162Z,6.52
2019-02-08T18:06:00.672Z,6.49
2019-02-08T18:08:31.102Z,6.58
2019-02-08T18:11:01.424Z,6.61
2019-02-08T18:13:32.254Z,6.62
2019-02-08T18:16:03.194Z,6.55
2019-02-08T18:18:40.957Z,6.51
2019-02-08T18:21:13.807Z,6.42
2019-02-08T18:23:44.115Z,6.43
2019-02-08T18:26:14.943Z,6.31
2019-02-08T18:28:45.690Z,6.25
2019-02-08T18:31:17.295Z,6.29
2019-02-08T18:33:48.376Z,6.20
2019-02-08T18:36:18.688Z,6.21
2019-02-08T18:38:49.069Z,6.08
2019-02-08T18:41:19.963Z,6.12
2019-02-08T18:43:50.842Z,6.07
2019-02-08T18:46:21.250Z,6.01
2019-02-08T18:48:51.691Z,5.92
2019-02-08T18:51:22.396Z,6.00
2019-02-08T18:53:52.779Z,5.99
2019-02-08T18:56:23.099Z,5.90
2019-02-08T18:58:56.542Z,5.89
2019-02-08T19:01:27.334Z,5.96
2019-02-08T19:03:57.844Z,5.86
2019-02-08T19:06:28.767Z,5.87
2019-02-08T19:08:59.192Z,5.91
2019-02-08T19:11:29.512Z,5.81
2019-02-08T19:13:59.988Z,5.83
2019-02-08T19:16:30.563Z,5.81
2019-02-08T19:19:01.039Z,5.87
2019-02-08T19:21:31.397Z,5.88
2019-02-08T19:24:01.833Z,5.83
2019-02-08T19:26:32.246Z,5.85
2019-02-08T19:29:02.698Z,5.94
2019-02-08T19:31:33.112Z,5.83
2019-02-08T19:34:03.665Z,5.92
2019-02-08T19:36:34.654Z,5.96
2019-02-08T19:39:11.220Z,5.92
2019-02-08T19:41:39.158Z,5.95
2019-02-08T19:44:22.116Z,5.96
2019-02-08T19:47:16.946Z,5.98
2019-02-08T19:50:05.936Z,5.94
2019-02-08T19:52:49.303Z,6.00
2019-02-08T19:55:35.487Z,6.01
2019-02-08T19:58:06.771Z,6.01
2019-02-08T20:00:37.671Z,6.03
2019-02-08T20:03:10.921Z,6.18
2019-02-08T20:06:23.478Z,6.13
2019-02-08T20:09:19.064Z,6.32
2019-02-08T20:12:16.893Z,6.29
2019-02-08T20:15:07.500Z,6.24
2019-02-08T20:17:54.485Z,6.29
2019-02-08T20:20:31.851Z,6.29
2019-02-08T20:23:15.335Z,6.18
2019-02-08T20:25:47.953Z,6.36
2019-02-08T20:28:21.035Z,6.36
2019-02-08T20:30:53.677Z,6.28
2019-02-08T20:33:25.628Z,6.40
2019-02-08T20:35:56.064Z,6.40
2019-02-08T20:38:26.997Z,6.26
2019-02-08T20:40:57.356Z,6.41
2019-02-08T20:43:28.195Z,6.38
2019-02-08T20:46:00.554Z,6.39
2019-02-08T20:48:33.258Z,6.29
2019-02-08T20:51:03.681Z,6.32
2019-02-08T20:53:34.867Z,6.27
2019-02-08T20:56:07.947Z,6.32
2019-02-08T20:58:39.476Z,6.21
2019-02-08T21:01:10.018Z,6.22
2019-02-08T21:03:40.692Z,6.29
2019-02-08T21:06:18.425Z,6.23
2019-02-08T21:08:51.557Z,6.22
2019-02-08T21:11:23.747Z,6.24
2019-02-08T21:13:54.197Z,6.18
2019-02-08T21:16:24.519Z,6.19
2019-02-08T21:18:55.004Z,6.13
2019-02-08T21:21:25.442Z,6.14
2019-02-08T21:23:55.830Z,6.13
2019-02-08T21:26:26.145Z,6.11
2019-02-08T21:29:07.210Z,6.19
2019-02-08T21:31:39.593Z,6.11
2019-02-08T21:34:10.067Z,6.08
2019-02-08T21:36:41.730Z,6.07
2019-02-08T21:39:12.312Z,6.00
2019-02-08T21:41:42.695Z,6.00
2019-02-08T21:44:13.373Z,6.00
2019-02-08T21:46:45.309Z,5.94
2019-02-08T21:49:15.710Z,6.05
2019-02-08T21:51:49.039Z,6.04
2019-02-08T21:54:19.576Z,6.07
2019-02-08T21:56:49.951Z,6.06
2019-02-08T21:59:20.805Z,6.01
2019-02-08T22:01:51.252Z,6.09
2019-02-08T22:04:22.199Z,5.98
2019-02-08T22:06:53.130Z,5.96
2019-02-08T22:09:25.976Z,5.91
2019-02-08T22:11:57.284Z,5.88
2019-02-08T22:14:28.561Z,5.75
2019-02-08T22:17:00.622Z,5.74
2019-02-08T22:19:31.312Z,5.63
2019-02-08T22:22:02.844Z,5.52
2019-02-08T22:24:36.113Z,5.50
2019-02-08T22:27:06.766Z,5.55
2019-02-08T22:29:39.875Z,5.50
2019-02-08T22:32:10.804Z,5.63
2019-02-08T22:34:41.463Z,5.67
2019-02-08T22:37:11.924Z,5.74
2019-02-08T22:39:42.335Z,5.79
2019-02-08T22:42:13.297Z,5.80
2019-02-08T22:44:43.633Z,5.83
2019-02-08T22:47:14.886Z,5.81
2019-02-08T22:49:45.636Z,5.91
2019-02-08T22:52:16.767Z,5.99
2019-02-08T22:54:48.980Z,6.11
2019-02-08T22:57:19.602Z,6.24
2019-02-08T22:59:51.695Z,6.31
2019-02-08T23:02:24.333Z,6.39
2019-02-08T23:04:54.737Z,6.38
2019-02-08T23:07:25.125Z,6.42
2019-02-08T23:10:00.534Z,6.43
2019-02-08T23:12:31.287Z,6.44
2019-02-08T23:15:02.165Z,6.38
2019-02-08T23:17:42.591Z,6.39
2019-02-08T23:20:13.570Z,6.32
2019-02-08T23:22:44.321Z,6.30
2019-02-08T23:25:15.118Z,6.21
2019-02-08T23:27:45.751Z,6.19
2019-02-08T23:30:16.206Z,6.15
2019-02-08T23:32:47.104Z,6.14
2019-02-08T23:35:21.005Z,6.16
2019-02-08T23:37:51.457Z,6.16
2019-02-08T23:40:22.940Z,6.21
2019-02-08T23:42:53.707Z,6.19
2019-02-08T23:45:24.119Z,6.17
2019-02-08T23:47:54.521Z,6.10
2019-02-08T23:50:24.967Z,6.17
2019-02-08T23:52:55.820Z,6.15
2019-02-08T23:55:26.525Z,6.14
2019-02-08T23:57:57.073Z,6.07
